LTAF Airport Information

Runway Information
Runway 05 Length 9022 ft width 148 ft
Elevation 54 ft Threshold 0 ft Heading 54
Runway 23 Length 9022 ft Width 148 ft
Elevation 65 ft Threshold 0 ft Heading 234
Airport Frequencies
Type APP Name INCIRLIK A Frequency 126.5 MHZ
Type ATIS Name Frequency 119.225 MHZ
Type GND Name Frequency 121.9 MHZ
Type TWR Name TWR Frequency 121.1 MHZ
Airport Navaids
Type VOR-DME Name Adana Frequency 112700 KHZ
Type NDB Name Adana Frequency 395 KHZ
Airport Weather Information & NOTAM
ADDS - METARS form results

(0949 UTC 22 February 2020)
Data provider http://aviationweather.gov/metar/data/
 
METAR text: LTAF 220920Z 36004KT 290V080 9999 SCT035 BKN100 16/10 Q1014 NOSIG RMK RWY23 VRB02KT
Conditions at: LTAF (ADANA/SAKIRPASA , TR) observed 0920 UTC 22 February 2020
Temperature: 16.0°C (61°F)
Dewpoint: 10.0°C (50°F) [RH = 68%]
Pressure (altimeter): 29.94 inches Hg (1014.0 mb)
Winds: from the N (360 degrees) at 5 MPH (4 knots; 2.1 m/s)
Visibility: 6 or more miles (10+ km)
Ceiling: 10000 feet AGL
Clouds: scattered clouds at 3500 feet AGL
broken clouds at 10000 feet AGL
Weather: no significant weather observed at this time

METAR text: LTAF 220850Z 35003KT 290V080 9999 SCT035 BKN100 15/09 Q1015 NOSIG RMK RWY23 03004KT 350V070
Conditions at: LTAF (ADANA/SAKIRPASA , TR) observed 0850 UTC 22 February 2020
Temperature: 15.0°C (59°F)
Dewpoint: 9.0°C (48°F) [RH = 67%]
Pressure (altimeter): 29.97 inches Hg (1015.0 mb)
Winds: from the N (350 degrees) at 3 MPH (3 knots; 1.5 m/s)
Visibility: 6 or more miles (10+ km)
Ceiling: 10000 feet AGL
Clouds: scattered clouds at 3500 feet AGL
broken clouds at 10000 feet AGL
Weather: no significant weather observed at this time

Forecast for: LTAF (ADANA/SAKIRPASA , TR)
Text: TAF LTAF 220440Z 2206/2306 03008KT 9999 BKN030 BKN090
Forecast period: 0600 UTC 22 February 2020 to 0600 UTC 23 February 2020
Forecast type: FROM: standard forecast or significant change
Winds: from the NNE (30 degrees) at 9 MPH (8 knots; 4.1 m/s)
Visibility: 6 or more miles 10+ km)
Ceiling: 3000 feet AGL
Clouds: broken clouds at 3000 feet AGL
broken clouds at 9000 feet AGL
Weather: no significant weather forecast for this period
Text: TEMPO 2210/2214 SHRA FEW025CB BKN030
Forecast period: 1000 to 1400 UTC 22 February 2020
Forecast type: TEMPORARY: The following changes expected for less than half the time period
Visibility: missing
Ceiling: 3000 feet AGL
Clouds: few clouds at 2500 feet AGL
broken clouds at 3000 feet AGL
Weather: SHRA  (rain showers)